sensor_id;sensor_type;location;lat;lon;timestamp;P1;durP1;ratioP1;P2;durP2;ratioP2
55316;SDS011;41178;48.956;8.130;2022-11-23T00:03:15;7.67;;;2.97;;
55316;SDS011;41178;48.956;8.130;2022-11-23T00:08:16;5.57;;;3.10;;
55316;SDS011;41178;48.956;8.130;2022-11-23T00:13:18;8.67;;;3.37;;
55316;SDS011;41178;48.956;8.130;2022-11-23T00:18:20;5.27;;;3.10;;
55316;SDS011;41178;48.956;8.130;2022-11-23T00:23:21;4.40;;;2.80;;
55316;SDS011;41178;48.956;8.130;2022-11-23T00:28:23;4.40;;;3.17;;
55316;SDS011;41178;48.956;8.130;2022-11-23T00:33:25;4.87;;;3.27;;
55316;SDS011;41178;48.956;8.130;2022-11-23T00:38:27;4.63;;;2.87;;
55316;SDS011;41178;48.956;8.130;2022-11-23T00:43:29;11.47;;;3.20;;
55316;SDS011;41178;48.956;8.130;2022-11-23T00:48:31;4.80;;;2.70;;
55316;SDS011;41178;48.956;8.130;2022-11-23T00:53:33;4.07;;;3.03;;
55316;SDS011;41178;48.956;8.130;2022-11-23T00:58:37;4.53;;;2.70;;
55316;SDS011;41178;48.956;8.130;2022-11-23T01:03:42;4.87;;;2.77;;
55316;SDS011;41178;48.956;8.130;2022-11-23T01:08:49;3.30;;;2.90;;
55316;SDS011;41178;48.956;8.130;2022-11-23T01:13:52;5.57;;;3.00;;
55316;SDS011;41178;48.956;8.130;2022-11-23T01:18:55;3.40;;;2.97;;
55316;SDS011;41178;48.956;8.130;2022-11-23T01:23:58;6.30;;;3.10;;
55316;SDS011;41178;48.956;8.130;2022-11-23T01:29:00;3.00;;;2.63;;
55316;SDS011;41178;48.956;8.130;2022-11-23T01:34:02;8.53;;;2.80;;
55316;SDS011;41178;48.956;8.130;2022-11-23T01:39:04;5.73;;;2.63;;
55316;SDS011;41178;48.956;8.130;2022-11-23T01:44:23;3.83;;;2.63;;
55316;SDS011;41178;48.956;8.130;2022-11-23T01:49:26;4.53;;;3.10;;
55316;SDS011;41178;48.956;8.130;2022-11-23T01:54:39;3.67;;;2.53;;
55316;SDS011;41178;48.956;8.130;2022-11-23T01:59:48;6.23;;;3.43;;
55316;SDS011;41178;48.956;8.130;2022-11-23T02:04:51;7.17;;;2.80;;
55316;SDS011;41178;48.956;8.130;2022-11-23T02:09:55;5.57;;;3.00;;
55316;SDS011;41178;48.956;8.130;2022-11-23T02:14:57;8.60;;;3.53;;
55316;SDS011;41178;48.956;8.130;2022-11-23T02:20:04;7.13;;;3.50;;
55316;SDS011;41178;48.956;8.130;2022-11-23T02:30:45;7.63;;;3.33;;
55316;SDS011;41178;48.956;8.130;2022-11-23T02:35:51;9.57;;;3.33;;
55316;SDS011;41178;48.956;8.130;2022-11-23T02:40:54;3.83;;;3.00;;
55316;SDS011;41178;48.956;8.130;2022-11-23T02:45:57;6.87;;;3.57;;
55316;SDS011;41178;48.956;8.130;2022-11-23T02:51:01;5.77;;;3.50;;
55316;SDS011;41178;48.956;8.130;2022-11-23T02:56:03;3.37;;;2.80;;
55316;SDS011;41178;48.956;8.130;2022-11-23T03:01:05;7.07;;;3.47;;
55316;SDS011;41178;48.956;8.130;2022-11-23T03:06:07;4.57;;;3.03;;
55316;SDS011;41178;48.956;8.130;2022-11-23T03:11:08;5.20;;;3.30;;
55316;SDS011;41178;48.956;8.130;2022-11-23T03:16:10;7.50;;;4.30;;
55316;SDS011;41178;48.956;8.130;2022-11-23T03:21:12;3.37;;;3.07;;
55316;SDS011;41178;48.956;8.130;2022-11-23T03:26:13;8.97;;;3.20;;
55316;SDS011;41178;48.956;8.130;2022-11-23T03:31:15;4.30;;;3.37;;
55316;SDS011;41178;48.956;8.130;2022-11-23T03:36:17;5.63;;;3.20;;
55316;SDS011;41178;48.956;8.130;2022-11-23T03:41:18;5.33;;;3.23;;
55316;SDS011;41178;48.956;8.130;2022-11-23T03:46:20;5.70;;;2.67;;
55316;SDS011;41178;48.956;8.130;2022-11-23T03:51:22;7.00;;;3.10;;
55316;SDS011;41178;48.956;8.130;2022-11-23T03:56:24;4.73;;;3.17;;
55316;SDS011;41178;48.956;8.130;2022-11-23T04:01:25;7.03;;;3.10;;
55316;SDS011;41178;48.956;8.130;2022-11-23T04:06:27;6.80;;;3.00;;
55316;SDS011;41178;48.956;8.130;2022-11-23T04:11:29;5.20;;;3.07;;
55316;SDS011;41178;48.956;8.130;2022-11-23T04:16:31;4.33;;;2.80;;
55316;SDS011;41178;48.956;8.130;2022-11-23T04:21:32;7.43;;;3.20;;
55316;SDS011;41178;48.956;8.130;2022-11-23T04:26:34;6.10;;;2.70;;
55316;SDS011;41178;48.956;8.130;2022-11-23T04:31:36;7.00;;;3.37;;
55316;SDS011;41178;48.956;8.130;2022-11-23T04:36:38;6.97;;;3.20;;
55316;SDS011;41178;48.956;8.130;2022-11-23T04:41:39;4.43;;;3.00;;
55316;SDS011;41178;48.956;8.130;2022-11-23T04:46:41;4.57;;;3.20;;
55316;SDS011;41178;48.956;8.130;2022-11-23T04:51:43;11.10;;;4.77;;
55316;SDS011;41178;48.956;8.130;2022-11-23T04:56:45;8.73;;;4.40;;
55316;SDS011;41178;48.956;8.130;2022-11-23T05:01:47;5.77;;;3.70;;
55316;SDS011;41178;48.956;8.130;2022-11-23T05:06:48;8.00;;;4.90;;
55316;SDS011;41178;48.956;8.130;2022-11-23T05:11:50;6.97;;;4.77;;
55316;SDS011;41178;48.956;8.130;2022-11-23T05:16:52;4.70;;;3.27;;
55316;SDS011;41178;48.956;8.130;2022-11-23T05:21:53;5.50;;;2.77;;
55316;SDS011;41178;48.956;8.130;2022-11-23T05:26:55;3.50;;;2.63;;
55316;SDS011;41178;48.956;8.130;2022-11-23T05:31:57;7.63;;;3.10;;
55316;SDS011;41178;48.956;8.130;2022-11-23T05:36:58;5.97;;;3.20;;
55316;SDS011;41178;48.956;8.130;2022-11-23T05:42:00;5.30;;;2.90;;
55316;SDS011;41178;48.956;8.130;2022-11-23T05:47:03;5.07;;;2.80;;
55316;SDS011;41178;48.956;8.130;2022-11-23T05:52:05;5.67;;;3.10;;
55316;SDS011;41178;48.956;8.130;2022-11-23T05:57:06;6.50;;;3.43;;
55316;SDS011;41178;48.956;8.130;2022-11-23T06:02:08;7.63;;;3.50;;
55316;SDS011;41178;48.956;8.130;2022-11-23T06:07:10;7.73;;;3.73;;
55316;SDS011;41178;48.956;8.130;2022-11-23T06:12:12;7.07;;;3.40;;
55316;SDS011;41178;48.956;8.130;2022-11-23T06:17:13;6.23;;;3.10;;
55316;SDS011;41178;48.956;8.130;2022-11-23T06:22:15;5.97;;;4.00;;
55316;SDS011;41178;48.956;8.130;2022-11-23T06:27:17;5.93;;;3.67;;
55316;SDS011;41178;48.956;8.130;2022-11-23T06:32:19;5.67;;;2.90;;
55316;SDS011;41178;48.956;8.130;2022-11-23T06:37:21;4.67;;;2.97;;
55316;SDS011;41178;48.956;8.130;2022-11-23T06:42:22;7.07;;;3.07;;
55316;SDS011;41178;48.956;8.130;2022-11-23T06:47:39;8.10;;;4.17;;
55316;SDS011;41178;48.956;8.130;2022-11-23T06:52:41;15.87;;;8.23;;
55316;SDS011;41178;48.956;8.130;2022-11-23T06:57:43;5.97;;;4.50;;
55316;SDS011;41178;48.956;8.130;2022-11-23T07:02:51;6.97;;;3.10;;
55316;SDS011;41178;48.956;8.130;2022-11-23T07:07:54;6.83;;;3.60;;
55316;SDS011;41178;48.956;8.130;2022-11-23T07:13:01;6.30;;;4.10;;
55316;SDS011;41178;48.956;8.130;2022-11-23T07:18:04;10.23;;;3.60;;
55316;SDS011;41178;48.956;8.130;2022-11-23T07:23:08;7.77;;;3.43;;
55316;SDS011;41178;48.956;8.130;2022-11-23T07:28:11;6.30;;;3.10;;
55316;SDS011;41178;48.956;8.130;2022-11-23T07:33:14;9.43;;;3.20;;
55316;SDS011;41178;48.956;8.130;2022-11-23T07:38:16;13.83;;;9.60;;
55316;SDS011;41178;48.956;8.130;2022-11-23T07:43:18;15.03;;;9.00;;
55316;SDS011;41178;48.956;8.130;2022-11-23T07:48:19;11.17;;;7.67;;
55316;SDS011;41178;48.956;8.130;2022-11-23T07:53:21;11.97;;;8.73;;
55316;SDS011;41178;48.956;8.130;2022-11-23T07:58:24;8.67;;;6.93;;
55316;SDS011;41178;48.956;8.130;2022-11-23T08:03:25;7.90;;;5.90;;
55316;SDS011;41178;48.956;8.130;2022-11-23T08:08:29;22.00;;;16.23;;
55316;SDS011;41178;48.956;8.130;2022-11-23T08:13:31;33.40;;;21.80;;
55316;SDS011;41178;48.956;8.130;2022-11-23T08:18:34;27.13;;;13.37;;
55316;SDS011;41178;48.956;8.130;2022-11-23T08:23:36;15.03;;;8.50;;
55316;SDS011;41178;48.956;8.130;2022-11-23T08:28:38;15.30;;;8.17;;
55316;SDS011;41178;48.956;8.130;2022-11-23T08:33:40;9.17;;;5.93;;
55316;SDS011;41178;48.956;8.130;2022-11-23T08:38:42;10.60;;;4.40;;
55316;SDS011;41178;48.956;8.130;2022-11-23T08:43:43;9.37;;;3.93;;
55316;SDS011;41178;48.956;8.130;2022-11-23T08:48:45;8.23;;;4.80;;
55316;SDS011;41178;48.956;8.130;2022-11-23T08:53:47;5.73;;;4.00;;
55316;SDS011;41178;48.956;8.130;2022-11-23T08:58:50;10.03;;;4.30;;
55316;SDS011;41178;48.956;8.130;2022-11-23T09:03:51;4.20;;;3.17;;
55316;SDS011;41178;48.956;8.130;2022-11-23T09:08:55;7.43;;;3.33;;
55316;SDS011;41178;48.956;8.130;2022-11-23T09:13:57;11.67;;;5.67;;
55316;SDS011;41178;48.956;8.130;2022-11-23T09:18:59;9.27;;;4.90;;
55316;SDS011;41178;48.956;8.130;2022-11-23T09:24:00;7.00;;;3.97;;
55316;SDS011;41178;48.956;8.130;2022-11-23T09:29:06;8.33;;;4.17;;
55316;SDS011;41178;48.956;8.130;2022-11-23T09:34:09;11.30;;;5.20;;
55316;SDS011;41178;48.956;8.130;2022-11-23T09:39:14;5.53;;;3.80;;
55316;SDS011;41178;48.956;8.130;2022-11-23T09:55:33;4.23;;;3.80;;
55316;SDS011;41178;48.956;8.130;2022-11-23T10:01:00;9.40;;;3.50;;
55316;SDS011;41178;48.956;8.130;2022-11-23T10:11:25;7.03;;;3.27;;
55316;SDS011;41178;48.956;8.130;2022-11-23T10:27:23;5.53;;;3.00;;
55316;SDS011;41178;48.956;8.130;2022-11-23T10:37:38;6.20;;;2.80;;
55316;SDS011;41178;48.956;8.130;2022-11-23T10:42:42;5.37;;;2.47;;
55316;SDS011;41178;48.956;8.130;2022-11-23T10:47:58;4.93;;;3.27;;
55316;SDS011;41178;48.956;8.130;2022-11-23T10:53:11;5.60;;;2.97;;
55316;SDS011;41178;48.956;8.130;2022-11-23T10:58:33;6.57;;;2.60;;
55316;SDS011;41178;48.956;8.130;2022-11-23T11:06:09;5.10;;;2.60;;
55316;SDS011;41178;48.956;8.130;2022-11-23T11:11:23;5.40;;;2.83;;
55316;SDS011;41178;48.956;8.130;2022-11-23T11:16:37;5.40;;;2.57;;
55316;SDS011;41178;48.956;8.130;2022-11-23T11:21:48;5.53;;;2.60;;
55316;SDS011;41178;48.956;8.130;2022-11-23T11:26:51;5.03;;;2.33;;
55316;SDS011;41178;48.956;8.130;2022-11-23T11:37:31;4.93;;;2.73;;
55316;SDS011;41178;48.956;8.130;2022-11-23T11:43:22;8.10;;;2.80;;
55316;SDS011;41178;48.956;8.130;2022-11-23T11:53:45;4.07;;;2.60;;
55316;SDS011;41178;48.956;8.130;2022-11-23T11:59:02;4.80;;;2.43;;
55316;SDS011;41178;48.956;8.130;2022-11-23T12:04:16;3.47;;;2.27;;
55316;SDS011;41178;48.956;8.130;2022-11-23T12:09:26;4.23;;;2.40;;
55316;SDS011;41178;48.956;8.130;2022-11-23T12:14:33;5.80;;;2.30;;
55316;SDS011;41178;48.956;8.130;2022-11-23T12:58:25;8.07;;;2.93;;
55316;SDS011;41178;48.956;8.130;2022-11-23T13:14:26;4.77;;;2.37;;
55316;SDS011;41178;48.956;8.130;2022-11-23T13:30:25;5.53;;;3.70;;
55316;SDS011;41178;48.956;8.130;2022-11-23T13:36:06;7.10;;;3.23;;
55316;SDS011;41178;48.956;8.130;2022-11-23T13:46:36;4.93;;;2.03;;
55316;SDS011;41178;48.956;8.130;2022-11-23T13:51:38;4.30;;;2.50;;
55316;SDS011;41178;48.956;8.130;2022-11-23T13:56:43;5.63;;;2.60;;
55316;SDS011;41178;48.956;8.130;2022-11-23T14:33:38;6.97;;;3.50;;
55316;SDS011;41178;48.956;8.130;2022-11-23T14:44:03;8.03;;;3.13;;
55316;SDS011;41178;48.956;8.130;2022-11-23T14:49:11;4.10;;;3.00;;
55316;SDS011;41178;48.956;8.130;2022-11-23T14:54:15;4.70;;;3.10;;
55316;SDS011;41178;48.956;8.130;2022-11-23T15:04:28;7.23;;;3.17;;
55316;SDS011;41178;48.956;8.130;2022-11-23T15:14:51;5.63;;;3.67;;
55316;SDS011;41178;48.956;8.130;2022-11-23T15:19:55;5.40;;;2.90;;
55316;SDS011;41178;48.956;8.130;2022-11-23T15:25:05;8.77;;;3.30;;
55316;SDS011;41178;48.956;8.130;2022-11-23T15:30:14;13.37;;;6.87;;
55316;SDS011;41178;48.956;8.130;2022-11-23T15:35:17;14.20;;;8.20;;
55316;SDS011;41178;48.956;8.130;2022-11-23T15:40:23;6.77;;;4.20;;
55316;SDS011;41178;48.956;8.130;2022-11-23T15:46:16;5.93;;;3.40;;
55316;SDS011;41178;48.956;8.130;2022-11-23T15:50:56;9.77;;;7.70;;
55316;SDS011;41178;48.956;8.130;2022-11-23T15:56:00;10.63;;;8.60;;
55316;SDS011;41178;48.956;8.130;2022-11-23T16:01:06;8.10;;;5.30;;
55316;SDS011;41178;48.956;8.130;2022-11-23T16:11:18;12.13;;;5.90;;
55316;SDS011;41178;48.956;8.130;2022-11-23T16:16:29;5.33;;;3.80;;
55316;SDS011;41178;48.956;8.130;2022-11-23T16:21:31;6.80;;;4.00;;
55316;SDS011;41178;48.956;8.130;2022-11-23T16:26:33;5.03;;;3.80;;
55316;SDS011;41178;48.956;8.130;2022-11-23T16:31:39;5.90;;;4.17;;
55316;SDS011;41178;48.956;8.130;2022-11-23T16:36:40;4.60;;;3.50;;
55316;SDS011;41178;48.956;8.130;2022-11-23T16:41:42;6.47;;;3.40;;
55316;SDS011;41178;48.956;8.130;2022-11-23T16:46:44;5.63;;;3.53;;
55316;SDS011;41178;48.956;8.130;2022-11-23T16:51:48;3.57;;;2.57;;
55316;SDS011;41178;48.956;8.130;2022-11-23T16:56:57;4.60;;;2.70;;
55316;SDS011;41178;48.956;8.130;2022-11-23T17:01:59;3.70;;;2.55;;
55316;SDS011;41178;48.956;8.130;2022-11-23T17:07:01;4.57;;;3.07;;
55316;SDS011;41178;48.956;8.130;2022-11-23T17:12:03;4.40;;;2.90;;
55316;SDS011;41178;48.956;8.130;2022-11-23T17:17:08;2.57;;;2.37;;
55316;SDS011;41178;48.956;8.130;2022-11-23T17:22:12;2.97;;;2.50;;
55316;SDS011;41178;48.956;8.130;2022-11-23T17:27:17;3.70;;;2.57;;
55316;SDS011;41178;48.956;8.130;2022-11-23T17:32:22;3.03;;;2.53;;
55316;SDS011;41178;48.956;8.130;2022-11-23T17:37:24;4.23;;;2.83;;
55316;SDS011;41178;48.956;8.130;2022-11-23T17:42:26;4.67;;;2.97;;
55316;SDS011;41178;48.956;8.130;2022-11-23T17:47:28;5.07;;;4.03;;
55316;SDS011;41178;48.956;8.130;2022-11-23T17:52:30;4.37;;;3.00;;
55316;SDS011;41178;48.956;8.130;2022-11-23T17:57:32;3.40;;;2.60;;
55316;SDS011;41178;48.956;8.130;2022-11-23T18:02:33;4.80;;;3.00;;
55316;SDS011;41178;48.956;8.130;2022-11-23T18:07:35;4.83;;;3.27;;
55316;SDS011;41178;48.956;8.130;2022-11-23T18:12:37;5.83;;;3.10;;
55316;SDS011;41178;48.956;8.130;2022-11-23T18:17:39;3.80;;;2.97;;
55316;SDS011;41178;48.956;8.130;2022-11-23T18:22:41;5.73;;;3.00;;
55316;SDS011;41178;48.956;8.130;2022-11-23T18:27:43;4.53;;;2.80;;
55316;SDS011;41178;48.956;8.130;2022-11-23T18:32:45;3.17;;;2.87;;
55316;SDS011;41178;48.956;8.130;2022-11-23T18:37:47;6.03;;;3.40;;
55316;SDS011;41178;48.956;8.130;2022-11-23T18:42:48;5.37;;;3.63;;
55316;SDS011;41178;48.956;8.130;2022-11-23T18:47:50;5.80;;;4.37;;
55316;SDS011;41178;48.956;8.130;2022-11-23T18:52:52;5.93;;;4.23;;
55316;SDS011;41178;48.956;8.130;2022-11-23T18:57:53;7.30;;;4.43;;
55316;SDS011;41178;48.956;8.130;2022-11-23T19:02:56;7.47;;;4.63;;
55316;SDS011;41178;48.956;8.130;2022-11-23T19:08:00;8.07;;;4.50;;
55316;SDS011;41178;48.956;8.130;2022-11-23T19:13:06;4.73;;;4.33;;
55316;SDS011;41178;48.956;8.130;2022-11-23T19:18:07;7.03;;;5.23;;
55316;SDS011;41178;48.956;8.130;2022-11-23T19:23:09;6.00;;;5.10;;
55316;SDS011;41178;48.956;8.130;2022-11-23T19:28:11;8.40;;;5.13;;
55316;SDS011;41178;48.956;8.130;2022-11-23T19:33:13;6.43;;;4.50;;
55316;SDS011;41178;48.956;8.130;2022-11-23T19:38:16;6.37;;;4.80;;
55316;SDS011;41178;48.956;8.130;2022-11-23T19:43:18;6.50;;;4.90;;
55316;SDS011;41178;48.956;8.130;2022-11-23T19:48:19;10.23;;;5.10;;
55316;SDS011;41178;48.956;8.130;2022-11-23T19:53:23;8.60;;;4.53;;
55316;SDS011;41178;48.956;8.130;2022-11-23T19:58:31;6.03;;;4.70;;
55316;SDS011;41178;48.956;8.130;2022-11-23T20:03:33;11.13;;;5.30;;
55316;SDS011;41178;48.956;8.130;2022-11-23T20:08:37;9.57;;;4.30;;
55316;SDS011;41178;48.956;8.130;2022-11-23T20:13:39;7.77;;;4.87;;
55316;SDS011;41178;48.956;8.130;2022-11-23T20:18:42;6.33;;;4.60;;
55316;SDS011;41178;48.956;8.130;2022-11-23T20:23:45;13.77;;;4.40;;
55316;SDS011;41178;48.956;8.130;2022-11-23T20:28:51;12.50;;;4.70;;
55316;SDS011;41178;48.956;8.130;2022-11-23T20:33:54;7.73;;;3.60;;
55316;SDS011;41178;48.956;8.130;2022-11-23T20:38:56;5.77;;;3.50;;
55316;SDS011;41178;48.956;8.130;2022-11-23T20:44:08;5.73;;;3.57;;
55316;SDS011;41178;48.956;8.130;2022-11-23T20:49:12;7.40;;;3.97;;
55316;SDS011;41178;48.956;8.130;2022-11-23T20:54:14;7.10;;;3.63;;
55316;SDS011;41178;48.956;8.130;2022-11-23T20:59:15;6.67;;;3.30;;
55316;SDS011;41178;48.956;8.130;2022-11-23T21:04:17;8.20;;;3.93;;
55316;SDS011;41178;48.956;8.130;2022-11-23T21:09:19;5.80;;;3.40;;
55316;SDS011;41178;48.956;8.130;2022-11-23T21:14:21;6.40;;;3.73;;
55316;SDS011;41178;48.956;8.130;2022-11-23T21:19:26;5.93;;;3.27;;
55316;SDS011;41178;48.956;8.130;2022-11-23T21:24:29;6.60;;;3.83;;
55316;SDS011;41178;48.956;8.130;2022-11-23T21:29:32;9.20;;;4.10;;
55316;SDS011;41178;48.956;8.130;2022-11-23T21:34:34;7.07;;;3.67;;
55316;SDS011;41178;48.956;8.130;2022-11-23T21:39:37;12.07;;;4.30;;
55316;SDS011;41178;48.956;8.130;2022-11-23T21:44:39;9.23;;;4.47;;
55316;SDS011;41178;48.956;8.130;2022-11-23T21:49:41;8.77;;;3.90;;
55316;SDS011;41178;48.956;8.130;2022-11-23T21:54:42;7.70;;;3.70;;
55316;SDS011;41178;48.956;8.130;2022-11-23T21:59:49;8.73;;;4.07;;
55316;SDS011;41178;48.956;8.130;2022-11-23T22:04:51;6.63;;;3.57;;
55316;SDS011;41178;48.956;8.130;2022-11-23T22:09:52;9.00;;;4.30;;
55316;SDS011;41178;48.956;8.130;2022-11-23T22:14:54;8.17;;;4.00;;
55316;SDS011;41178;48.956;8.130;2022-11-23T22:19:56;9.23;;;4.53;;
55316;SDS011;41178;48.956;8.130;2022-11-23T22:24:57;10.63;;;5.47;;
55316;SDS011;41178;48.956;8.130;2022-11-23T22:29:59;8.93;;;4.70;;
55316;SDS011;41178;48.956;8.130;2022-11-23T22:35:00;4.67;;;3.60;;
55316;SDS011;41178;48.956;8.130;2022-11-23T22:40:03;8.37;;;4.10;;
55316;SDS011;41178;48.956;8.130;2022-11-23T22:45:06;9.07;;;3.60;;
55316;SDS011;41178;48.956;8.130;2022-11-23T22:50:08;7.73;;;4.13;;
55316;SDS011;41178;48.956;8.130;2022-11-23T22:55:10;11.13;;;3.50;;
55316;SDS011;41178;48.956;8.130;2022-11-23T23:00:12;9.47;;;4.00;;
55316;SDS011;41178;48.956;8.130;2022-11-23T23:05:13;7.57;;;3.67;;
55316;SDS011;41178;48.956;8.130;2022-11-23T23:10:15;7.97;;;4.07;;
55316;SDS011;41178;48.956;8.130;2022-11-23T23:15:17;6.53;;;3.87;;
55316;SDS011;41178;48.956;8.130;2022-11-23T23:20:19;7.53;;;4.10;;
55316;SDS011;41178;48.956;8.130;2022-11-23T23:25:20;8.90;;;4.23;;
55316;SDS011;41178;48.956;8.130;2022-11-23T23:30:22;11.80;;;3.60;;
55316;SDS011;41178;48.956;8.130;2022-11-23T23:35:24;9.00;;;3.97;;
55316;SDS011;41178;48.956;8.130;2022-11-23T23:40:26;9.73;;;4.00;;
55316;SDS011;41178;48.956;8.130;2022-11-23T23:45:27;6.77;;;3.60;;
55316;SDS011;41178;48.956;8.130;2022-11-23T23:50:29;13.80;;;4.90;;
55316;SDS011;41178;48.956;8.130;2022-11-23T23:55:30;10.80;;;4.07;;
